Time,TemperatureF,DewpointF,PressureIn,WindDirection,WindDirectionDegrees,WindSpeedMPH,WindSpeedGustMPH,Humidity,HourlyPrecipIn,Conditions,Clouds,dailyrainin,SoftwareType,DateUTC
2013-04-05 00:02:00,41.0,40.0,30.10,NNE,32,0.0,0.0,96,0.00,,,1.00,,2013-04-05 04:02:00,
2013-04-05 00:12:00,41.0,40.0,30.10,NNE,32,0.0,0.0,96,0.00,,,1.00,,2013-04-05 04:12:00,
2013-04-05 00:23:00,40.0,40.0,30.11,NNE,25,0.0,0.0,99,0.00,,,2.00,,2013-04-05 04:23:00,
2013-04-05 00:33:00,40.0,39.0,30.11,WNW,301,1.0,3.0,97,0.00,,,2.00,,2013-04-05 04:33:00,
2013-04-05 00:42:00,40.0,39.0,30.11,WNW,301,1.0,3.0,97,0.00,,,2.00,,2013-04-05 04:42:00,
2013-04-05 00:52:00,41.0,40.0,30.11,West,260,0.0,2.0,98,0.00,,,2.00,,2013-04-05 04:52:00,
2013-04-05 01:02:00,41.0,40.0,30.11,SSE,150,0.0,0.0,97,0.00,,,2.00,,2013-04-05 05:02:00,
2013-04-05 01:13:00,41.0,40.0,30.11,SSE,150,0.0,0.0,97,0.00,,,2.00,,2013-04-05 05:13:00,
2013-04-05 01:22:00,41.0,40.0,30.11,NNE,28,0.0,0.0,98,-99.99,,,1.00,,2013-04-05 05:22:00,
2013-04-05 01:32:00,40.0,40.0,30.11,West,263,0.0,0.0,99,0.00,,,1.00,,2013-04-05 05:32:00,
2013-04-05 01:42:00,40.0,40.0,30.11,West,263,0.0,0.0,99,0.00,,,1.00,,2013-04-05 05:42:00,
2013-04-05 01:53:00,40.0,40.0,30.11,NE,48,0.0,0.0,100,0.00,,,1.00,,2013-04-05 05:53:00,
2013-04-05 02:02:00,40.0,40.0,30.10,NE,48,0.0,0.0,100,0.00,,,1.00,,2013-04-05 06:02:00,
2013-04-05 02:12:00,40.0,40.0,30.10,NE,48,0.0,0.0,100,0.00,,,1.00,,2013-04-05 06:12:00,
2013-04-05 02:22:00,40.0,40.0,30.10,NE,48,0.0,0.0,100,0.00,,,1.00,,2013-04-05 06:22:00,
2013-04-05 02:32:00,40.0,40.0,30.09,SW,219,0.0,1.0,100,0.00,,,1.00,,2013-04-05 06:32:00,
2013-04-05 02:42:00,40.0,40.0,30.09,SW,219,0.0,1.0,100,0.00,,,1.00,,2013-04-05 06:42:00,
2013-04-05 02:52:00,39.0,39.0,30.09,SSW,195,0.0,0.0,100,0.00,,,1.00,,2013-04-05 06:52:00,
2013-04-05 03:02:00,39.0,39.0,30.09,SSW,195,0.0,0.0,100,0.00,,,1.00,,2013-04-05 07:02:00,
2013-04-05 03:12:00,39.0,39.0,30.09,SSW,195,0.0,0.0,100,0.00,,,1.00,,2013-04-05 07:12:00,
2013-04-05 03:22:00,39.0,39.0,30.09,SSW,195,0.0,0.0,100,0.00,,,1.00,,2013-04-05 07:22:00,
2013-04-05 03:32:00,39.0,39.0,30.09,SSW,195,0.0,0.0,100,0.00,,,1.00,,2013-04-05 07:32:00,
2013-04-05 03:42:00,39.0,39.0,30.09,SSW,195,0.0,0.0,100,0.00,,,1.00,,2013-04-05 07:42:00,
2013-04-05 03:53:00,39.0,39.0,30.09,SSW,195,0.0,0.0,100,0.00,,,1.00,,2013-04-05 07:53:00,
2013-04-05 04:02:00,39.0,39.0,30.07,SSW,195,0.0,0.0,100,0.00,,,1.00,,2013-04-05 08:02:00,
2013-04-05 04:13:00,39.0,39.0,30.07,SSW,195,0.0,0.0,100,0.00,,,1.00,,2013-04-05 08:13:00,
2013-04-05 04:22:00,39.0,39.0,30.06,SSW,195,0.0,0.0,100,0.00,,,1.00,,2013-04-05 08:22:00,
2013-04-05 04:32:00,39.0,39.0,30.05,West,263,1.0,4.0,100,0.00,,,1.00,,2013-04-05 08:32:00,
2013-04-05 04:43:00,39.0,39.0,30.05,West,263,1.0,4.0,100,0.00,,,1.00,,2013-04-05 08:43:00,
2013-04-05 04:52:00,40.0,40.0,30.04,West,263,0.0,0.0,100,0.00,,,1.00,,2013-04-05 08:52:00,
2013-04-05 05:02:00,40.0,40.0,30.03,SE,125,0.0,0.0,100,0.00,,,1.00,,2013-04-05 09:02:00,
2013-04-05 05:12:00,40.0,40.0,30.03,SE,125,0.0,0.0,100,0.00,,,1.00,,2013-04-05 09:12:00,
2013-04-05 05:22:00,39.0,39.0,30.02,SE,125,0.0,0.0,100,0.00,,,1.00,,2013-04-05 09:22:00,
2013-04-05 05:33:00,39.0,39.0,30.02,SW,214,2.0,4.0,100,0.00,,,1.00,,2013-04-05 09:33:00,
2013-04-05 05:43:00,39.0,39.0,30.02,SW,214,2.0,4.0,100,0.00,,,1.00,,2013-04-05 09:43:00,
2013-04-05 05:52:00,39.0,39.0,30.01,WSW,248,7.0,9.0,100,0.00,,,1.00,,2013-04-05 09:52:00,
2013-04-05 06:03:00,39.0,39.0,30.02,NW,325,3.0,6.0,100,0.00,,,1.00,,2013-04-05 10:03:00,
2013-04-05 06:13:00,39.0,39.0,30.02,NW,325,3.0,6.0,100,0.00,,,1.00,,2013-04-05 10:13:00,
2013-04-05 06:23:00,41.0,41.0,30.03,SSW,193,0.0,0.0,99,0.00,,,1.00,,2013-04-05 10:23:00,
2013-04-05 06:33:00,40.0,40.0,30.04,SSE,156,0.0,2.0,99,0.00,,,1.00,,2013-04-05 10:33:00,
2013-04-05 06:43:00,40.0,40.0,30.04,SSE,156,0.0,2.0,99,0.00,,,1.00,,2013-04-05 10:43:00,
2013-04-05 06:53:00,40.0,40.0,30.06,SW,218,0.0,0.0,100,0.00,,,1.00,,2013-04-05 10:53:00,
2013-04-05 07:03:00,39.0,39.0,30.07,NNW,330,4.0,5.0,100,0.00,,,0.99,,2013-04-05 11:03:00,
2013-04-05 07:13:00,39.0,39.0,30.07,NNW,330,4.0,5.0,100,0.00,,,0.99,,2013-04-05 11:13:00,
2013-04-05 07:22:00,39.0,39.0,30.08,NNW,343,0.0,0.0,100,0.00,,,0.99,,2013-04-05 11:22:00,
2013-04-05 07:33:00,39.0,39.0,30.09,NNW,340,0.0,0.0,100,0.00,,,0.98,,2013-04-05 11:33:00,
2013-04-05 07:42:00,39.0,39.0,30.09,NNW,340,0.0,0.0,100,0.00,,,0.98,,2013-04-05 11:42:00,
2013-04-05 07:52:00,39.0,39.0,30.10,NNW,340,0.0,0.0,100,0.00,,,0.97,,2013-04-05 11:52:00,
2013-04-05 08:02:00,39.0,39.0,30.11,NNW,340,0.0,0.0,100,0.00,,,0.96,,2013-04-05 12:02:00,
2013-04-05 08:12:00,39.0,39.0,30.11,NNW,340,0.0,0.0,100,0.00,,,0.96,,2013-04-05 12:12:00,
2013-04-05 08:22:00,39.0,39.0,30.11,NNW,340,0.0,0.0,100,0.00,,,0.96,,2013-04-05 12:22:00,
2013-04-05 08:32:00,40.0,40.0,30.11,NNW,340,0.0,0.0,100,0.00,,,0.96,,2013-04-05 12:32:00,
2013-04-05 08:42:00,40.0,40.0,30.11,NNW,340,0.0,0.0,100,0.00,,,0.96,,2013-04-05 12:42:00,
2013-04-05 08:52:00,41.0,41.0,30.11,NNW,340,0.0,0.0,100,0.00,,,0.96,,2013-04-05 12:52:00,
2013-04-05 09:02:00,41.0,41.0,30.12,NNW,340,0.0,0.0,100,0.00,,,0.96,,2013-04-05 13:02:00,
2013-04-05 09:12:00,41.0,41.0,30.12,NNW,340,0.0,0.0,100,0.00,,,0.96,,2013-04-05 13:12:00,
2013-04-05 09:23:00,42.0,42.0,30.12,NNW,340,0.0,0.0,100,0.00,,,0.96,,2013-04-05 13:23:00,
2013-04-05 09:32:00,43.0,43.0,30.12,SE,128,1.0,2.0,100,0.00,,,0.96,,2013-04-05 13:32:00,
2013-04-05 09:42:00,43.0,43.0,30.12,SE,128,1.0,2.0,100,0.00,,,0.96,,2013-04-05 13:42:00,
2013-04-05 09:52:00,44.0,44.0,30.11,South,187,2.0,4.0,99,0.00,,,0.96,,2013-04-05 13:52:00,
2013-04-05 10:03:00,48.0,47.0,30.11,WSW,242,0.0,5.0,98,0.00,,,0.96,,2013-04-05 14:03:00,
2013-04-05 10:12:00,48.0,47.0,30.11,WSW,242,0.0,5.0,98,0.00,,,0.96,,2013-04-05 14:12:00,
2013-04-05 10:23:00,52.0,48.0,30.11,NW,314,0.0,1.0,85,0.00,,,0.96,,2013-04-05 14:23:00,
2013-04-05 10:37:00,52.0,47.0,30.11,East,83,1.0,3.0,83,0.00,,,0.96,,2013-04-05 14:37:00,
2013-04-05 10:43:00,52.0,47.0,30.11,East,83,1.0,3.0,83,0.00,,,0.96,,2013-04-05 14:43:00,
2013-04-05 10:54:00,53.0,46.0,30.11,SSW,200,3.0,5.0,78,0.00,,,0.95,,2013-04-05 14:54:00,
2013-04-05 11:02:00,54.0,46.0,30.11,ESE,104,5.0,8.0,74,0.00,,,0.95,,2013-04-05 15:02:00,
2013-04-05 11:13:00,54.0,46.0,30.11,ESE,104,5.0,8.0,74,0.00,,,0.95,,2013-04-05 15:13:00,
2013-04-05 11:23:00,54.0,47.0,30.11,SSE,163,1.0,2.0,76,0.00,,,0.95,,2013-04-05 15:23:00,
2013-04-05 11:33:00,57.0,48.0,30.11,East,98,2.0,6.0,72,0.00,,,0.95,,2013-04-05 15:33:00,
2013-04-05 11:43:00,57.0,48.0,30.11,East,98,2.0,6.0,72,0.00,,,0.95,,2013-04-05 15:43:00,
2013-04-05 11:53:00,57.0,47.0,30.11,ESE,110,8.0,11.0,70,0.00,,,0.94,,2013-04-05 15:53:00,
2013-04-05 12:03:00,57.0,46.0,30.11,WSW,255,4.0,7.0,67,0.00,,,0.92,,2013-04-05 16:03:00,
2013-04-05 12:13:00,57.0,46.0,30.11,WSW,255,4.0,7.0,67,0.00,,,0.92,,2013-04-05 16:13:00,
2013-04-05 12:23:00,59.0,48.0,30.11,North,350,8.0,10.0,68,0.00,,,0.88,,2013-04-05 16:23:00,
2013-04-05 12:33:00,60.0,47.0,30.10,WNW,294,2.0,3.0,63,0.00,,,0.86,,2013-04-05 16:33:00,
2013-04-05 12:42:00,60.0,47.0,30.10,WNW,294,2.0,3.0,63,0.00,,,0.86,,2013-04-05 16:42:00,
2013-04-05 12:53:00,62.0,48.0,30.10,SSE,167,0.0,2.0,61,0.00,,,0.86,,2013-04-05 16:53:00,
2013-04-05 13:03:00,62.0,49.0,30.10,SSE,162,0.0,0.0,62,0.00,,,0.79,,2013-04-05 17:03:00,
2013-04-05 13:13:00,62.0,49.0,30.10,SSE,162,0.0,0.0,62,0.00,,,0.79,,2013-04-05 17:13:00,
2013-04-05 13:23:00,61.0,48.0,30.09,West,278,2.0,4.0,63,0.00,,,0.75,,2013-04-05 17:23:00,
2013-04-05 13:32:00,61.0,49.0,30.09,NNW,340,3.0,4.0,64,0.00,,,0.74,,2013-04-05 17:32:00,
2013-04-05 13:45:00,61.0,49.0,30.09,NNW,340,3.0,4.0,64,0.00,,,0.74,,2013-04-05 17:45:00,
2013-04-05 13:52:00,63.0,48.0,30.09,SW,229,2.0,3.0,59,0.00,,,0.70,,2013-04-05 17:52:00,
2013-04-05 14:02:00,62.0,48.0,30.08,NW,311,2.0,4.0,61,0.00,,,0.70,,2013-04-05 18:02:00,
2013-04-05 14:13:00,62.0,48.0,30.08,NW,311,2.0,4.0,61,0.00,,,0.70,,2013-04-05 18:13:00,
2013-04-05 14:23:00,62.0,48.0,30.08,NNW,339,2.0,5.0,61,0.00,,,-99.99,,2013-04-05 18:23:00,
2013-04-05 14:33:00,62.0,49.0,30.08,SSE,162,3.0,7.0,62,0.00,,,0.68,,2013-04-05 18:33:00,
2013-04-05 14:43:00,62.0,49.0,30.08,SSE,162,3.0,7.0,62,0.00,,,0.68,,2013-04-05 18:43:00,
2013-04-05 14:52:00,64.0,49.0,30.08,NNE,20,2.0,5.0,58,0.00,,,0.67,,2013-04-05 18:52:00,
2013-04-05 15:00:00,67.0,49.0,30.07,NNW,346,3.0,8.0,53,0.00,,,0.65,,2013-04-05 19:00:00,
2013-04-05 15:02:00,66.0,49.0,30.07,NNE,25,1.0,2.0,55,0.00,,,0.65,,2013-04-05 19:02:00,
2013-04-05 15:13:00,66.0,49.0,30.07,NNE,25,1.0,2.0,55,0.00,,,0.65,,2013-04-05 19:13:00,
2013-04-05 15:23:00,67.0,49.0,30.07,NNW,346,3.0,8.0,53,0.00,,,0.65,,2013-04-05 19:23:00,
2013-04-05 15:33:00,67.0,49.0,30.07,NNW,346,3.0,8.0,53,0.00,,,0.65,,2013-04-05 19:33:00,
2013-04-05 15:42:00,67.0,49.0,30.07,NNW,346,3.0,8.0,53,0.00,,,0.65,,2013-04-05 19:42:00,
2013-04-05 15:53:00,67.0,49.0,30.07,NNW,346,3.0,8.0,53,0.00,,,0.65,,2013-04-05 19:53:00,
2013-04-05 16:22:00,64.0,47.0,30.06,South,170,1.0,2.0,55,0.00,,,0.26,,2013-04-05 20:22:00,
2013-04-05 16:33:00,64.0,47.0,30.06,South,170,1.0,2.0,55,0.00,,,0.26,,2013-04-05 20:33:00,
2013-04-05 16:43:00,64.0,47.0,30.06,South,170,1.0,2.0,55,0.00,,,0.26,,2013-04-05 20:43:00,
2013-04-05 16:52:00,66.0,45.0,30.06,WNW,284,6.0,8.0,46,0.00,,,0.21,,2013-04-05 20:52:00,
2013-04-05 17:03:00,67.0,46.0,30.06,West,266,1.0,3.0,46,0.00,,,0.18,,2013-04-05 21:03:00,
2013-04-05 17:13:00,67.0,46.0,30.06,West,266,1.0,3.0,46,0.00,,,0.18,,2013-04-05 21:13:00,
2013-04-05 17:23:00,67.0,44.0,30.06,West,264,2.0,4.0,43,0.00,,,0.17,,2013-04-05 21:23:00,
2013-04-05 17:33:00,67.0,44.0,30.06,NW,312,1.0,2.0,44,0.00,,,0.12,,2013-04-05 21:33:00,
2013-04-05 17:43:00,67.0,44.0,30.06,NW,312,1.0,2.0,44,0.00,,,0.12,,2013-04-05 21:43:00,
2013-04-05 17:53:00,66.0,43.0,30.06,West,270,3.0,6.0,43,0.00,,,0.07,,2013-04-05 21:53:00,
2013-04-05 18:03:00,65.0,41.0,30.07,ENE,63,5.0,7.0,42,0.00,,,0.06,,2013-04-05 22:03:00,
2013-04-05 18:13:00,65.0,41.0,30.07,ENE,63,5.0,7.0,42,0.00,,,0.06,,2013-04-05 22:13:00,
2013-04-05 18:23:00,64.0,42.0,30.07,ENE,66,6.0,8.0,44,0.00,,,0.06,,2013-04-05 22:23:00,
2013-04-05 18:33:00,64.0,43.0,30.08,North,3,2.0,5.0,46,0.00,,,0.06,,2013-04-05 22:33:00,
2013-04-05 18:43:00,64.0,43.0,30.08,North,3,2.0,5.0,46,0.00,,,0.06,,2013-04-05 22:43:00,
2013-04-05 18:52:00,63.0,42.0,30.08,North,359,4.0,6.0,47,0.00,,,0.06,,2013-04-05 22:52:00,
2013-04-05 19:03:00,62.0,42.0,30.09,NNE,27,3.0,6.0,47,0.00,,,0.06,,2013-04-05 23:03:00,
2013-04-05 19:12:00,62.0,42.0,30.09,NNE,27,3.0,6.0,47,0.00,,,0.06,,2013-04-05 23:12:00,
2013-04-05 19:22:00,62.0,43.0,30.10,NNE,25,4.0,6.0,49,0.00,,,0.05,,2013-04-05 23:22:00,
2013-04-05 19:32:00,61.0,42.0,30.10,NNE,23,4.0,6.0,50,0.00,,,0.03,,2013-04-05 23:32:00,
2013-04-05 19:42:00,61.0,42.0,30.10,NNE,23,4.0,6.0,50,0.00,,,0.03,,2013-04-05 23:42:00,
2013-04-05 19:52:00,60.0,42.0,30.11,North,359,7.0,9.0,51,0.00,,,0.02,,2013-04-05 23:52:00,
2013-04-05 20:02:00,59.0,41.0,30.12,NW,322,6.0,13.0,51,0.00,,,0.02,,2013-04-06 00:02:00,
2013-04-05 20:13:00,59.0,41.0,30.12,NW,322,6.0,13.0,51,0.00,,,0.02,,2013-04-06 00:13:00,
2013-04-05 20:23:00,59.0,42.0,30.13,NNE,14,4.0,7.0,53,0.00,,,0.01,,2013-04-06 00:23:00,
2013-04-05 20:33:00,58.0,41.0,30.14,NNW,340,5.0,8.0,53,0.00,,,0.01,,2013-04-06 00:33:00,
2013-04-05 20:42:00,58.0,41.0,30.14,NNW,340,5.0,8.0,53,0.00,,,0.01,,2013-04-06 00:42:00,
2013-04-05 20:52:00,58.0,43.0,30.14,North,0,5.0,6.0,57,0.00,,,0.01,,2013-04-06 00:52:00,
2013-04-05 21:02:00,58.0,42.0,30.15,North,353,4.0,7.0,56,0.00,,,0.01,,2013-04-06 01:02:00,
2013-04-05 21:13:00,58.0,42.0,30.16,North,7,4.0,6.0,56,0.00,,,0.00,,2013-04-06 01:13:00,
2013-04-05 21:22:00,58.0,42.0,30.16,North,7,4.0,6.0,56,0.00,,,0.00,,2013-04-06 01:22:00,
2013-04-05 21:33:00,57.0,41.0,30.17,NNW,330,4.0,8.0,56,0.00,,,0.00,,2013-04-06 01:33:00,
2013-04-05 21:43:00,57.0,41.0,30.17,NNW,330,4.0,8.0,56,0.00,,,0.00,,2013-04-06 01:43:00,
2013-04-05 21:53:00,57.0,41.0,30.17,North,4,6.0,8.0,55,0.00,,,0.00,,2013-04-06 01:53:00,
2013-04-05 22:02:00,57.0,41.0,30.17,North,3,7.0,9.0,54,0.00,,,0.00,,2013-04-06 02:02:00,
2013-04-05 22:12:00,57.0,41.0,30.17,North,3,7.0,9.0,54,0.00,,,0.00,,2013-04-06 02:12:00,
2013-04-05 22:22:00,58.0,40.0,30.18,North,7,5.0,12.0,52,0.00,,,0.00,,2013-04-06 02:22:00,
2013-04-05 22:32:00,58.0,40.0,30.19,NW,311,3.0,6.0,52,0.00,,,0.00,,2013-04-06 02:32:00,
2013-04-05 22:42:00,58.0,40.0,30.19,NW,311,3.0,6.0,52,0.00,,,0.00,,2013-04-06 02:42:00,
2013-04-05 22:53:00,58.0,40.0,30.19,NNE,24,2.0,3.0,51,0.00,,,0.00,,2013-04-06 02:53:00,
2013-04-05 23:02:00,57.0,39.0,30.19,WSW,252,5.0,8.0,51,0.00,,,0.00,,2013-04-06 03:02:00,
2013-04-05 23:13:00,57.0,39.0,30.19,WSW,252,5.0,8.0,51,0.00,,,0.00,,2013-04-06 03:13:00,
2013-04-05 23:22:00,56.0,42.0,30.19,NNW,335,2.0,4.0,59,0.00,,,0.00,,2013-04-06 03:22:00,
2013-04-05 23:34:00,55.0,41.0,30.19,West,273,1.0,1.0,60,0.00,,,0.00,,2013-04-06 03:34:00,
2013-04-05 23:43:00,55.0,41.0,30.19,West,273,1.0,1.0,60,0.00,,,0.00,,2013-04-06 03:43:00,
2013-04-05 23:53:00,54.0,42.0,30.19,NNE,25,0.0,0.0,63,0.00,,,0.00,,2013-04-06 03:53:00,